sensor_id;sensor_type;location;lat;lon;timestamp;P1;durP1;ratioP1;P2;durP2;ratioP2
19084;SDS011;9675;51.538;6.728;2022-10-16T04:01:50;0.40;;;0.40;;
19084;SDS011;9675;51.538;6.728;2022-10-16T04:04:17;2.10;;;0.77;;
19084;SDS011;9675;51.538;6.728;2022-10-16T04:06:46;2.30;;;0.63;;
19084;SDS011;9675;51.538;6.728;2022-10-16T04:09:13;1.23;;;0.40;;
19084;SDS011;9675;51.538;6.728;2022-10-16T04:11:40;0.97;;;0.60;;
19084;SDS011;9675;51.538;6.728;2022-10-16T04:14:07;0.50;;;0.40;;
19084;SDS011;9675;51.538;6.728;2022-10-16T04:16:34;2.47;;;0.40;;
19084;SDS011;9675;51.538;6.728;2022-10-16T04:19:03;3.10;;;0.40;;
19084;SDS011;9675;51.538;6.728;2022-10-16T04:21:30;1.07;;;0.40;;
19084;SDS011;9675;51.538;6.728;2022-10-16T04:23:57;0.60;;;0.30;;
19084;SDS011;9675;51.538;6.728;2022-10-16T04:26:24;0.97;;;0.30;;
19084;SDS011;9675;51.538;6.728;2022-10-16T04:28:51;1.20;;;0.70;;
19084;SDS011;9675;51.538;6.728;2022-10-16T04:31:19;0.23;;;0.23;;
19084;SDS011;9675;51.538;6.728;2022-10-16T04:33:46;1.17;;;0.43;;
19084;SDS011;9675;51.538;6.728;2022-10-16T04:36:14;0.40;;;0.17;;
19084;SDS011;9675;51.538;6.728;2022-10-16T04:38:41;0.37;;;0.33;;
19084;SDS011;9675;51.538;6.728;2022-10-16T04:41:08;0.90;;;0.43;;
19084;SDS011;9675;51.538;6.728;2022-10-16T04:43:35;0.67;;;0.30;;
19084;SDS011;9675;51.538;6.728;2022-10-16T04:46:02;1.30;;;0.50;;
19084;SDS011;9675;51.538;6.728;2022-10-16T04:48:30;0.60;;;0.40;;
19084;SDS011;9675;51.538;6.728;2022-10-16T04:50:57;1.40;;;0.43;;
19084;SDS011;9675;51.538;6.728;2022-10-16T04:53:26;1.27;;;0.43;;
19084;SDS011;9675;51.538;6.728;2022-10-16T04:55:53;1.03;;;0.60;;
19084;SDS011;9675;51.538;6.728;2022-10-16T04:58:21;6.83;;;0.70;;
19084;SDS011;9675;51.538;6.728;2022-10-16T05:00:48;1.03;;;0.67;;
19084;SDS011;9675;51.538;6.728;2022-10-16T05:03:15;3.77;;;0.77;;
19084;SDS011;9675;51.538;6.728;2022-10-16T05:05:42;9.73;;;2.37;;
19084;SDS011;9675;51.538;6.728;2022-10-16T05:08:11;14.80;;;2.97;;
19084;SDS011;9675;51.538;6.728;2022-10-16T05:10:42;6.33;;;2.13;;
19084;SDS011;9675;51.538;6.728;2022-10-16T05:13:10;5.73;;;2.23;;
19084;SDS011;9675;51.538;6.728;2022-10-16T05:15:38;4.57;;;1.43;;
19084;SDS011;9675;51.538;6.728;2022-10-16T05:18:05;2.73;;;1.10;;
19084;SDS011;9675;51.538;6.728;2022-10-16T05:20:32;2.07;;;0.97;;
19084;SDS011;9675;51.538;6.728;2022-10-16T05:23:00;3.20;;;1.30;;
19084;SDS011;9675;51.538;6.728;2022-10-16T05:25:27;7.23;;;0.70;;
19084;SDS011;9675;51.538;6.728;2022-10-16T05:27:56;0.50;;;0.50;;
19084;SDS011;9675;51.538;6.728;2022-10-16T05:30:23;1.30;;;0.90;;
19084;SDS011;9675;51.538;6.728;2022-10-16T05:32:50;0.47;;;0.30;;
19084;SDS011;9675;51.538;6.728;2022-10-16T05:35:18;0.90;;;0.43;;
19084;SDS011;9675;51.538;6.728;2022-10-16T05:37:45;0.80;;;0.40;;
19084;SDS011;9675;51.538;6.728;2022-10-16T05:40:13;0.30;;;0.30;;
19084;SDS011;9675;51.538;6.728;2022-10-16T05:42:41;0.63;;;0.50;;
19084;SDS011;9675;51.538;6.728;2022-10-16T05:45:10;0.83;;;0.23;;
19084;SDS011;9675;51.538;6.728;2022-10-16T05:47:38;0.40;;;0.40;;
19084;SDS011;9675;51.538;6.728;2022-10-16T05:50:05;0.77;;;0.43;;
19084;SDS011;9675;51.538;6.728;2022-10-16T05:52:34;0.27;;;0.23;;
19084;SDS011;9675;51.538;6.728;2022-10-16T05:55:01;0.20;;;0.20;;
19084;SDS011;9675;51.538;6.728;2022-10-16T05:57:28;0.53;;;0.47;;
19084;SDS011;9675;51.538;6.728;2022-10-16T05:59:56;0.93;;;0.30;;
19084;SDS011;9675;51.538;6.728;2022-10-16T06:02:24;0.50;;;0.40;;
19084;SDS011;9675;51.538;6.728;2022-10-16T06:04:51;0.50;;;0.50;;
19084;SDS011;9675;51.538;6.728;2022-10-16T06:07:19;0.33;;;0.30;;
19084;SDS011;9675;51.538;6.728;2022-10-16T06:09:47;0.33;;;0.30;;
19084;SDS011;9675;51.538;6.728;2022-10-16T06:12:15;1.03;;;0.40;;
19084;SDS011;9675;51.538;6.728;2022-10-16T06:14:42;0.87;;;0.60;;
19084;SDS011;9675;51.538;6.728;2022-10-16T06:17:11;1.43;;;0.67;;
19084;SDS011;9675;51.538;6.728;2022-10-16T06:19:40;0.43;;;0.40;;
19084;SDS011;9675;51.538;6.728;2022-10-16T06:22:07;0.40;;;0.33;;
19084;SDS011;9675;51.538;6.728;2022-10-16T06:24:34;1.70;;;0.63;;
19084;SDS011;9675;51.538;6.728;2022-10-16T06:27:02;1.07;;;0.50;;
19084;SDS011;9675;51.538;6.728;2022-10-16T06:29:29;1.80;;;0.57;;
19084;SDS011;9675;51.538;6.728;2022-10-16T06:31:56;0.47;;;0.40;;
19084;SDS011;9675;51.538;6.728;2022-10-16T06:34:23;0.57;;;0.40;;
19084;SDS011;9675;51.538;6.728;2022-10-16T06:36:52;1.17;;;0.50;;
19084;SDS011;9675;51.538;6.728;2022-10-16T06:39:19;0.90;;;0.50;;
19084;SDS011;9675;51.538;6.728;2022-10-16T06:41:46;0.60;;;0.30;;
19084;SDS011;9675;51.538;6.728;2022-10-16T06:44:13;3.90;;;0.50;;
19084;SDS011;9675;51.538;6.728;2022-10-16T06:46:41;1.57;;;0.50;;
19084;SDS011;9675;51.538;6.728;2022-10-16T06:49:08;0.43;;;0.43;;
19084;SDS011;9675;51.538;6.728;2022-10-16T06:51:35;1.13;;;0.70;;
19084;SDS011;9675;51.538;6.728;2022-10-16T06:54:07;0.47;;;0.47;;
19084;SDS011;9675;51.538;6.728;2022-10-16T06:56:34;0.50;;;0.43;;
19084;SDS011;9675;51.538;6.728;2022-10-16T06:59:02;0.93;;;0.40;;
19084;SDS011;9675;51.538;6.728;2022-10-16T07:01:29;2.10;;;0.63;;
19084;SDS011;9675;51.538;6.728;2022-10-16T07:03:56;1.70;;;0.47;;
19084;SDS011;9675;51.538;6.728;2022-10-16T07:06:25;1.43;;;0.50;;
19084;SDS011;9675;51.538;6.728;2022-10-16T07:08:53;0.97;;;0.50;;
19084;SDS011;9675;51.538;6.728;2022-10-16T07:11:22;1.43;;;0.90;;
19084;SDS011;9675;51.538;6.728;2022-10-16T07:13:50;2.17;;;0.50;;
19084;SDS011;9675;51.538;6.728;2022-10-16T07:16:18;0.60;;;0.60;;
19084;SDS011;9675;51.538;6.728;2022-10-16T07:18:48;1.40;;;0.57;;
19084;SDS011;9675;51.538;6.728;2022-10-16T07:21:17;1.93;;;0.70;;
19084;SDS011;9675;51.538;6.728;2022-10-16T07:23:49;1.07;;;0.83;;
19084;SDS011;9675;51.538;6.728;2022-10-16T07:26:17;1.10;;;0.63;;
19084;SDS011;9675;51.538;6.728;2022-10-16T07:28:45;1.17;;;0.43;;
19084;SDS011;9675;51.538;6.728;2022-10-16T07:31:13;2.07;;;0.70;;
19084;SDS011;9675;51.538;6.728;2022-10-16T07:33:42;1.93;;;0.93;;
19084;SDS011;9675;51.538;6.728;2022-10-16T07:36:12;4.40;;;0.80;;
19084;SDS011;9675;51.538;6.728;2022-10-16T07:38:40;0.80;;;0.67;;
19084;SDS011;9675;51.538;6.728;2022-10-16T07:41:09;5.10;;;1.10;;
19084;SDS011;9675;51.538;6.728;2022-10-16T07:43:38;1.43;;;0.60;;
19084;SDS011;9675;51.538;6.728;2022-10-16T07:46:07;0.60;;;0.60;;
19084;SDS011;9675;51.538;6.728;2022-10-16T07:48:34;0.80;;;0.60;;
19084;SDS011;9675;51.538;6.728;2022-10-16T07:51:02;0.73;;;0.40;;
19084;SDS011;9675;51.538;6.728;2022-10-16T07:53:32;3.43;;;0.70;;
19084;SDS011;9675;51.538;6.728;2022-10-16T07:55:59;0.97;;;0.80;;
19084;SDS011;9675;51.538;6.728;2022-10-16T07:58:27;1.67;;;1.00;;
19084;SDS011;9675;51.538;6.728;2022-10-16T08:00:55;0.80;;;0.70;;
19084;SDS011;9675;51.538;6.728;2022-10-16T08:03:25;1.00;;;0.90;;
19084;SDS011;9675;51.538;6.728;2022-10-16T08:05:52;3.33;;;0.97;;
19084;SDS011;9675;51.538;6.728;2022-10-16T08:08:19;0.90;;;0.70;;
19084;SDS011;9675;51.538;6.728;2022-10-16T08:10:46;0.80;;;0.67;;
19084;SDS011;9675;51.538;6.728;2022-10-16T08:13:13;1.77;;;0.70;;
19084;SDS011;9675;51.538;6.728;2022-10-16T08:15:40;0.80;;;0.40;;
19084;SDS011;9675;51.538;6.728;2022-10-16T08:18:08;0.97;;;0.70;;
19084;SDS011;9675;51.538;6.728;2022-10-16T08:20:38;1.00;;;0.73;;
19084;SDS011;9675;51.538;6.728;2022-10-16T08:23:06;0.80;;;0.60;;
19084;SDS011;9675;51.538;6.728;2022-10-16T08:25:36;5.40;;;1.20;;
19084;SDS011;9675;51.538;6.728;2022-10-16T08:28:04;1.23;;;0.97;;
19084;SDS011;9675;51.538;6.728;2022-10-16T08:30:32;5.97;;;1.63;;
19084;SDS011;9675;51.538;6.728;2022-10-16T08:33:00;3.07;;;1.40;;
19084;SDS011;9675;51.538;6.728;2022-10-16T08:35:27;3.47;;;0.73;;
19084;SDS011;9675;51.538;6.728;2022-10-16T08:37:56;1.60;;;0.97;;
19084;SDS011;9675;51.538;6.728;2022-10-16T08:40:24;4.57;;;2.20;;
19084;SDS011;9675;51.538;6.728;2022-10-16T08:42:57;1.27;;;0.80;;
19084;SDS011;9675;51.538;6.728;2022-10-16T08:45:58;3.10;;;0.93;;
19084;SDS011;9675;51.538;6.728;2022-10-16T08:49:01;4.13;;;1.20;;
19084;SDS011;9675;51.538;6.728;2022-10-16T08:51:30;6.60;;;1.90;;
19084;SDS011;9675;51.538;6.728;2022-10-16T08:54:03;5.80;;;1.47;;
19084;SDS011;9675;51.538;6.728;2022-10-16T08:56:38;4.43;;;1.30;;
19084;SDS011;9675;51.538;6.728;2022-10-16T08:59:06;2.53;;;1.30;;
19084;SDS011;9675;51.538;6.728;2022-10-16T09:01:38;4.37;;;1.37;;
19084;SDS011;9675;51.538;6.728;2022-10-16T09:04:20;1.67;;;0.93;;
19084;SDS011;9675;51.538;6.728;2022-10-16T09:07:15;1.20;;;0.60;;
19084;SDS011;9675;51.538;6.728;2022-10-16T09:10:06;6.23;;;2.03;;
19084;SDS011;9675;51.538;6.728;2022-10-16T09:12:51;4.90;;;1.03;;
19084;SDS011;9675;51.538;6.728;2022-10-16T09:15:29;4.83;;;1.93;;
19084;SDS011;9675;51.538;6.728;2022-10-16T09:18:06;2.87;;;0.80;;
19084;SDS011;9675;51.538;6.728;2022-10-16T09:20:45;1.53;;;0.80;;
19084;SDS011;9675;51.538;6.728;2022-10-16T09:23:18;2.63;;;1.20;;
19084;SDS011;9675;51.538;6.728;2022-10-16T09:25:52;1.30;;;0.87;;
19084;SDS011;9675;51.538;6.728;2022-10-16T09:28:22;1.93;;;1.10;;
19084;SDS011;9675;51.538;6.728;2022-10-16T09:30:49;4.50;;;1.83;;
19084;SDS011;9675;51.538;6.728;2022-10-16T09:33:17;1.67;;;1.13;;
19084;SDS011;9675;51.538;6.728;2022-10-16T09:35:48;2.10;;;0.90;;
19084;SDS011;9675;51.538;6.728;2022-10-16T09:38:21;3.90;;;0.70;;
19084;SDS011;9675;51.538;6.728;2022-10-16T09:40:54;1.03;;;0.60;;
19084;SDS011;9675;51.538;6.728;2022-10-16T09:43:24;0.80;;;0.60;;
19084;SDS011;9675;51.538;6.728;2022-10-16T09:45:59;4.43;;;0.60;;
19084;SDS011;9675;51.538;6.728;2022-10-16T09:48:31;0.60;;;0.50;;
19084;SDS011;9675;51.538;6.728;2022-10-16T09:51:05;0.47;;;0.33;;
19084;SDS011;9675;51.538;6.728;2022-10-16T09:53:45;2.50;;;0.50;;
19084;SDS011;9675;51.538;6.728;2022-10-16T09:56:22;2.30;;;0.50;;
19084;SDS011;9675;51.538;6.728;2022-10-16T09:58:51;1.07;;;0.40;;
19084;SDS011;9675;51.538;6.728;2022-10-16T10:01:20;1.27;;;0.50;;
19084;SDS011;9675;51.538;6.728;2022-10-16T10:03:55;0.50;;;0.37;;
19084;SDS011;9675;51.538;6.728;2022-10-16T10:06:27;2.27;;;0.60;;
19084;SDS011;9675;51.538;6.728;2022-10-16T10:09:03;0.60;;;0.30;;
19084;SDS011;9675;51.538;6.728;2022-10-16T10:11:44;1.07;;;0.50;;
19084;SDS011;9675;51.538;6.728;2022-10-16T10:14:27;0.87;;;0.30;;
19084;SDS011;9675;51.538;6.728;2022-10-16T10:17:06;0.50;;;0.30;;
19084;SDS011;9675;51.538;6.728;2022-10-16T10:19:42;3.10;;;0.60;;
19084;SDS011;9675;51.538;6.728;2022-10-16T10:22:29;1.73;;;0.50;;
19084;SDS011;9675;51.538;6.728;2022-10-16T10:25:19;1.20;;;0.67;;
19084;SDS011;9675;51.538;6.728;2022-10-16T10:28:38;1.00;;;0.30;;
19084;SDS011;9675;51.538;6.728;2022-10-16T10:31:24;1.43;;;0.40;;
19084;SDS011;9675;51.538;6.728;2022-10-16T10:34:02;1.00;;;0.40;;
19084;SDS011;9675;51.538;6.728;2022-10-16T10:36:52;0.53;;;0.40;;
19084;SDS011;9675;51.538;6.728;2022-10-16T10:39:32;4.53;;;0.30;;
19084;SDS011;9675;51.538;6.728;2022-10-16T10:42:12;0.90;;;0.43;;
19084;SDS011;9675;51.538;6.728;2022-10-16T10:45:03;0.27;;;0.23;;
19084;SDS011;9675;51.538;6.728;2022-10-16T10:47:51;0.30;;;0.30;;
19084;SDS011;9675;51.538;6.728;2022-10-16T10:50:39;2.57;;;0.40;;
19084;SDS011;9675;51.538;6.728;2022-10-16T10:53:18;0.43;;;0.23;;
19084;SDS011;9675;51.538;6.728;2022-10-16T10:56:05;2.43;;;0.30;;
19084;SDS011;9675;51.538;6.728;2022-10-16T10:59:08;2.43;;;0.50;;
19084;SDS011;9675;51.538;6.728;2022-10-16T11:01:58;2.77;;;0.43;;
19084;SDS011;9675;51.538;6.728;2022-10-16T11:07:47;0.93;;;0.60;;
19084;SDS011;9675;51.538;6.728;2022-10-16T11:10:25;3.83;;;0.40;;
19084;SDS011;9675;51.538;6.728;2022-10-16T11:13:00;2.80;;;0.50;;
19084;SDS011;9675;51.538;6.728;2022-10-16T11:15:45;2.00;;;0.40;;
19084;SDS011;9675;51.538;6.728;2022-10-16T11:18:18;0.37;;;0.30;;
19084;SDS011;9675;51.538;6.728;2022-10-16T11:20:51;0.60;;;0.30;;
19084;SDS011;9675;51.538;6.728;2022-10-16T11:23:25;1.07;;;0.50;;
19084;SDS011;9675;51.538;6.728;2022-10-16T11:25:59;3.07;;;1.17;;
19084;SDS011;9675;51.538;6.728;2022-10-16T11:28:34;1.37;;;0.60;;
19084;SDS011;9675;51.538;6.728;2022-10-16T11:31:07;1.87;;;1.00;;
19084;SDS011;9675;51.538;6.728;2022-10-16T11:33:44;4.40;;;1.20;;
19084;SDS011;9675;51.538;6.728;2022-10-16T11:36:19;2.03;;;0.70;;
19084;SDS011;9675;51.538;6.728;2022-10-16T11:38:53;5.03;;;1.10;;
19084;SDS011;9675;51.538;6.728;2022-10-16T11:41:32;2.60;;;0.73;;
19084;SDS011;9675;51.538;6.728;2022-10-16T11:44:12;6.93;;;1.47;;
19084;SDS011;9675;51.538;6.728;2022-10-16T11:46:52;6.43;;;2.73;;
19084;SDS011;9675;51.538;6.728;2022-10-16T11:49:37;4.17;;;0.87;;
19084;SDS011;9675;51.538;6.728;2022-10-16T11:52:10;1.97;;;0.97;;
19084;SDS011;9675;51.538;6.728;2022-10-16T11:54:45;4.93;;;1.57;;
19084;SDS011;9675;51.538;6.728;2022-10-16T11:57:21;2.80;;;0.53;;
19084;SDS011;9675;51.538;6.728;2022-10-16T11:59:53;0.70;;;0.50;;
19084;SDS011;9675;51.538;6.728;2022-10-16T12:02:32;1.53;;;1.03;;
19084;SDS011;9675;51.538;6.728;2022-10-16T12:05:17;1.50;;;0.63;;
19084;SDS011;9675;51.538;6.728;2022-10-16T12:07:57;0.40;;;0.40;;
19084;SDS011;9675;51.538;6.728;2022-10-16T12:10:36;2.10;;;0.70;;
19084;SDS011;9675;51.538;6.728;2022-10-16T12:13:25;1.57;;;1.27;;
19084;SDS011;9675;51.538;6.728;2022-10-16T12:16:04;1.10;;;1.00;;
19084;SDS011;9675;51.538;6.728;2022-10-16T12:18:45;2.20;;;0.93;;
19084;SDS011;9675;51.538;6.728;2022-10-16T12:21:15;1.57;;;1.40;;
19084;SDS011;9675;51.538;6.728;2022-10-16T12:23:48;1.50;;;1.20;;
19084;SDS011;9675;51.538;6.728;2022-10-16T12:26:25;0.40;;;0.40;;
19084;SDS011;9675;51.538;6.728;2022-10-16T12:28:56;0.60;;;0.37;;
19084;SDS011;9675;51.538;6.728;2022-10-16T12:31:43;2.83;;;0.70;;
19084;SDS011;9675;51.538;6.728;2022-10-16T12:34:19;1.27;;;0.60;;
19084;SDS011;9675;51.538;6.728;2022-10-16T12:36:54;2.90;;;0.70;;
19084;SDS011;9675;51.538;6.728;2022-10-16T12:39:35;2.23;;;0.80;;
19084;SDS011;9675;51.538;6.728;2022-10-16T12:42:04;0.83;;;0.30;;
19084;SDS011;9675;51.538;6.728;2022-10-16T12:44:46;0.80;;;0.57;;
19084;SDS011;9675;51.538;6.728;2022-10-16T12:47:19;2.87;;;0.30;;
19084;SDS011;9675;51.538;6.728;2022-10-16T12:49:50;0.30;;;0.27;;
19084;SDS011;9675;51.538;6.728;2022-10-16T12:52:28;2.10;;;0.30;;
19084;SDS011;9675;51.538;6.728;2022-10-16T12:55:02;1.43;;;0.30;;
19084;SDS011;9675;51.538;6.728;2022-10-16T12:57:40;2.50;;;0.50;;
19084;SDS011;9675;51.538;6.728;2022-10-16T13:00:34;0.30;;;0.23;;
19084;SDS011;9675;51.538;6.728;2022-10-16T13:06:33;2.83;;;0.43;;
19084;SDS011;9675;51.538;6.728;2022-10-16T13:09:16;1.03;;;0.30;;
19084;SDS011;9675;51.538;6.728;2022-10-16T13:12:08;0.20;;;0.20;;
19084;SDS011;9675;51.538;6.728;2022-10-16T13:17:52;0.20;;;0.10;;
19084;SDS011;9675;51.538;6.728;2022-10-16T13:20:31;1.53;;;0.40;;
19084;SDS011;9675;51.538;6.728;2022-10-16T13:23:13;0.57;;;0.20;;
19084;SDS011;9675;51.538;6.728;2022-10-16T13:25:58;0.53;;;0.30;;
19084;SDS011;9675;51.538;6.728;2022-10-16T13:28:42;0.20;;;0.20;;
19084;SDS011;9675;51.538;6.728;2022-10-16T13:31:11;0.13;;;0.13;;
19084;SDS011;9675;51.538;6.728;2022-10-16T13:33:46;1.77;;;0.30;;
19084;SDS011;9675;51.538;6.728;2022-10-16T13:36:18;1.67;;;0.60;;
19084;SDS011;9675;51.538;6.728;2022-10-16T13:38:48;0.57;;;0.10;;
19084;SDS011;9675;51.538;6.728;2022-10-16T13:41:27;0.47;;;0.17;;
19084;SDS011;9675;51.538;6.728;2022-10-16T13:43:54;0.20;;;0.13;;
19084;SDS011;9675;51.538;6.728;2022-10-16T13:46:24;1.40;;;0.30;;
19084;SDS011;9675;51.538;6.728;2022-10-16T13:48:58;1.13;;;0.30;;
19084;SDS011;9675;51.538;6.728;2022-10-16T13:51:29;0.13;;;0.13;;
19084;SDS011;9675;51.538;6.728;2022-10-16T13:53:58;2.27;;;0.53;;
19084;SDS011;9675;51.538;6.728;2022-10-16T13:56:26;1.50;;;0.30;;
19084;SDS011;9675;51.538;6.728;2022-10-16T13:59:00;0.33;;;0.10;;
19084;SDS011;9675;51.538;6.728;2022-10-16T14:01:30;3.07;;;0.30;;
19084;SDS011;9675;51.538;6.728;2022-10-16T14:04:01;1.67;;;0.50;;
19084;SDS011;9675;51.538;6.728;2022-10-16T14:06:32;2.37;;;0.30;;
19084;SDS011;9675;51.538;6.728;2022-10-16T14:09:00;0.63;;;0.30;;
19084;SDS011;9675;51.538;6.728;2022-10-16T14:11:34;1.77;;;0.17;;
19084;SDS011;9675;51.538;6.728;2022-10-16T14:14:13;2.53;;;0.20;;
19084;SDS011;9675;51.538;6.728;2022-10-16T14:16:42;1.57;;;0.30;;
19084;SDS011;9675;51.538;6.728;2022-10-16T14:19:14;2.87;;;1.63;;
19084;SDS011;9675;51.538;6.728;2022-10-16T14:21:48;8.97;;;3.67;;
19084;SDS011;9675;51.538;6.728;2022-10-16T14:24:24;2.17;;;0.90;;
19084;SDS011;9675;51.538;6.728;2022-10-16T14:26:55;5.40;;;0.70;;
19084;SDS011;9675;51.538;6.728;2022-10-16T14:29:22;5.00;;;2.60;;
19084;SDS011;9675;51.538;6.728;2022-10-16T14:31:56;5.20;;;1.97;;
19084;SDS011;9675;51.538;6.728;2022-10-16T14:34:26;4.00;;;1.03;;
19084;SDS011;9675;51.538;6.728;2022-10-16T14:36:58;1.80;;;1.27;;
19084;SDS011;9675;51.538;6.728;2022-10-16T14:39:32;0.87;;;0.80;;
19084;SDS011;9675;51.538;6.728;2022-10-16T14:42:01;4.37;;;2.90;;
19084;SDS011;9675;51.538;6.728;2022-10-16T14:44:31;3.17;;;2.80;;
19084;SDS011;9675;51.538;6.728;2022-10-16T14:47:06;4.30;;;2.27;;
19084;SDS011;9675;51.538;6.728;2022-10-16T14:49:39;1.03;;;0.80;;
19084;SDS011;9675;51.538;6.728;2022-10-16T14:52:09;1.80;;;0.90;;
19084;SDS011;9675;51.538;6.728;2022-10-16T14:54:38;2.27;;;2.00;;
19084;SDS011;9675;51.538;6.728;2022-10-16T14:57:12;1.13;;;1.00;;
19084;SDS011;9675;51.538;6.728;2022-10-16T14:59:45;1.10;;;0.87;;
19084;SDS011;9675;51.538;6.728;2022-10-16T15:02:16;1.60;;;0.50;;
19084;SDS011;9675;51.538;6.728;2022-10-16T15:04:51;1.33;;;0.43;;
19084;SDS011;9675;51.538;6.728;2022-10-16T15:07:18;1.33;;;0.40;;
19084;SDS011;9675;51.538;6.728;2022-10-16T15:09:45;1.70;;;1.03;;
19084;SDS011;9675;51.538;6.728;2022-10-16T15:12:14;0.70;;;0.70;;
19084;SDS011;9675;51.538;6.728;2022-10-16T15:14:42;1.77;;;1.40;;
19084;SDS011;9675;51.538;6.728;2022-10-16T15:17:10;2.00;;;1.40;;
19084;SDS011;9675;51.538;6.728;2022-10-16T15:19:37;1.37;;;1.27;;
19084;SDS011;9675;51.538;6.728;2022-10-16T15:22:05;1.40;;;1.07;;
19084;SDS011;9675;51.538;6.728;2022-10-16T15:24:32;1.20;;;1.10;;
19084;SDS011;9675;51.538;6.728;2022-10-16T15:26:59;2.83;;;0.93;;
19084;SDS011;9675;51.538;6.728;2022-10-16T15:29:28;0.60;;;0.60;;
19084;SDS011;9675;51.538;6.728;2022-10-16T15:31:55;1.07;;;0.53;;
19084;SDS011;9675;51.538;6.728;2022-10-16T15:34:22;1.43;;;1.07;;
19084;SDS011;9675;51.538;6.728;2022-10-16T15:36:49;3.77;;;0.80;;
19084;SDS011;9675;51.538;6.728;2022-10-16T15:39:16;0.63;;;0.63;;
19084;SDS011;9675;51.538;6.728;2022-10-16T15:41:46;0.83;;;0.67;;
19084;SDS011;9675;51.538;6.728;2022-10-16T15:44:16;2.27;;;0.83;;
19084;SDS011;9675;51.538;6.728;2022-10-16T15:46:44;0.77;;;0.53;;
19084;SDS011;9675;51.538;6.728;2022-10-16T15:49:12;0.77;;;0.60;;
19084;SDS011;9675;51.538;6.728;2022-10-16T15:51:40;1.53;;;0.60;;
19084;SDS011;9675;51.538;6.728;2022-10-16T15:54:08;0.73;;;0.40;;
19084;SDS011;9675;51.538;6.728;2022-10-16T15:56:35;2.47;;;0.80;;
19084;SDS011;9675;51.538;6.728;2022-10-16T15:59:03;0.93;;;0.60;;
19084;SDS011;9675;51.538;6.728;2022-10-16T16:01:31;1.40;;;0.67;;
19084;SDS011;9675;51.538;6.728;2022-10-16T16:04:00;0.50;;;0.50;;
19084;SDS011;9675;51.538;6.728;2022-10-16T16:06:29;1.47;;;0.57;;
19084;SDS011;9675;51.538;6.728;2022-10-16T16:08:56;0.90;;;0.50;;
19084;SDS011;9675;51.538;6.728;2022-10-16T16:11:24;0.60;;;0.30;;
19084;SDS011;9675;51.538;6.728;2022-10-16T16:13:51;0.93;;;0.50;;
19084;SDS011;9675;51.538;6.728;2022-10-16T16:16:20;3.67;;;0.60;;
19084;SDS011;9675;51.538;6.728;2022-10-16T16:18:47;2.67;;;0.70;;
19084;SDS011;9675;51.538;6.728;2022-10-16T16:21:16;0.60;;;0.50;;
19084;SDS011;9675;51.538;6.728;2022-10-16T16:23:43;8.83;;;1.87;;
19084;SDS011;9675;51.538;6.728;2022-10-16T16:26:11;1.13;;;0.63;;
19084;SDS011;9675;51.538;6.728;2022-10-16T16:28:41;1.20;;;0.63;;
19084;SDS011;9675;51.538;6.728;2022-10-16T16:31:09;1.63;;;0.80;;
19084;SDS011;9675;51.538;6.728;2022-10-16T16:33:36;1.53;;;0.83;;
19084;SDS011;9675;51.538;6.728;2022-10-16T16:36:06;3.30;;;0.90;;
19084;SDS011;9675;51.538;6.728;2022-10-16T16:38:34;1.83;;;0.80;;
19084;SDS011;9675;51.538;6.728;2022-10-16T16:41:10;0.90;;;0.70;;
19084;SDS011;9675;51.538;6.728;2022-10-16T16:43:38;1.13;;;0.70;;
19084;SDS011;9675;51.538;6.728;2022-10-16T16:46:05;1.63;;;0.67;;
19084;SDS011;9675;51.538;6.728;2022-10-16T16:48:32;3.33;;;0.70;;
19084;SDS011;9675;51.538;6.728;2022-10-16T16:51:02;2.53;;;0.63;;
19084;SDS011;9675;51.538;6.728;2022-10-16T16:53:30;1.50;;;0.70;;
19084;SDS011;9675;51.538;6.728;2022-10-16T16:56:01;1.23;;;0.63;;
19084;SDS011;9675;51.538;6.728;2022-10-16T16:58:29;1.40;;;0.73;;
19084;SDS011;9675;51.538;6.728;2022-10-16T17:00:57;1.33;;;0.97;;
19084;SDS011;9675;51.538;6.728;2022-10-16T17:03:25;2.10;;;0.67;;
19084;SDS011;9675;51.538;6.728;2022-10-16T17:05:55;1.33;;;0.60;;
19084;SDS011;9675;51.538;6.728;2022-10-16T17:08:23;2.37;;;1.10;;
19084;SDS011;9675;51.538;6.728;2022-10-16T17:10:52;5.63;;;2.53;;
19084;SDS011;9675;51.538;6.728;2022-10-16T17:13:20;6.90;;;3.20;;
19084;SDS011;9675;51.538;6.728;2022-10-16T17:15:48;6.23;;;2.43;;
19084;SDS011;9675;51.538;6.728;2022-10-16T17:18:17;5.27;;;2.37;;
19084;SDS011;9675;51.538;6.728;2022-10-16T17:20:45;5.40;;;2.30;;
19084;SDS011;9675;51.538;6.728;2022-10-16T17:23:13;5.63;;;2.87;;
19084;SDS011;9675;51.538;6.728;2022-10-16T17:25:42;12.57;;;4.63;;
19084;SDS011;9675;51.538;6.728;2022-10-16T17:28:13;12.07;;;5.13;;
19084;SDS011;9675;51.538;6.728;2022-10-16T17:30:41;11.67;;;5.57;;
19084;SDS011;9675;51.538;6.728;2022-10-16T17:33:10;15.53;;;5.50;;
19084;SDS011;9675;51.538;6.728;2022-10-16T17:35:38;10.77;;;4.70;;
19084;SDS011;9675;51.538;6.728;2022-10-16T17:38:07;9.30;;;4.37;;
19084;SDS011;9675;51.538;6.728;2022-10-16T17:40:36;4.43;;;2.53;;
19084;SDS011;9675;51.538;6.728;2022-10-16T17:43:03;4.80;;;2.70;;
19084;SDS011;9675;51.538;6.728;2022-10-16T17:45:35;8.57;;;3.13;;
19084;SDS011;9675;51.538;6.728;2022-10-16T17:48:03;7.63;;;3.33;;
19084;SDS011;9675;51.538;6.728;2022-10-16T17:50:31;4.03;;;2.27;;
19084;SDS011;9675;51.538;6.728;2022-10-16T17:52:58;6.93;;;2.73;;
19084;SDS011;9675;51.538;6.728;2022-10-16T17:55:25;5.43;;;2.50;;
19084;SDS011;9675;51.538;6.728;2022-10-16T17:57:52;4.23;;;2.20;;
19084;SDS011;9675;51.538;6.728;2022-10-16T18:00:19;3.20;;;1.80;;
19084;SDS011;9675;51.538;6.728;2022-10-16T18:02:49;4.80;;;1.90;;
19084;SDS011;9675;51.538;6.728;2022-10-16T18:05:16;2.17;;;1.10;;
19084;SDS011;9675;51.538;6.728;2022-10-16T18:07:43;2.53;;;1.33;;
19084;SDS011;9675;51.538;6.728;2022-10-16T18:10:10;4.47;;;1.70;;
19084;SDS011;9675;51.538;6.728;2022-10-16T18:12:37;7.40;;;2.30;;
19084;SDS011;9675;51.538;6.728;2022-10-16T18:15:05;1.90;;;1.07;;
19084;SDS011;9675;51.538;6.728;2022-10-16T18:17:33;3.50;;;1.70;;
19084;SDS011;9675;51.538;6.728;2022-10-16T18:20:04;3.43;;;1.87;;
19084;SDS011;9675;51.538;6.728;2022-10-16T18:22:32;2.87;;;1.50;;
19084;SDS011;9675;51.538;6.728;2022-10-16T18:25:00;3.93;;;1.97;;
19084;SDS011;9675;51.538;6.728;2022-10-16T18:27:29;3.83;;;1.30;;
19084;SDS011;9675;51.538;6.728;2022-10-16T18:29:56;2.93;;;1.27;;
19084;SDS011;9675;51.538;6.728;2022-10-16T18:32:24;2.90;;;1.53;;
19084;SDS011;9675;51.538;6.728;2022-10-16T18:34:52;4.50;;;1.57;;
19084;SDS011;9675;51.538;6.728;2022-10-16T18:37:20;3.17;;;1.27;;
19084;SDS011;9675;51.538;6.728;2022-10-16T18:39:48;3.17;;;1.20;;
19084;SDS011;9675;51.538;6.728;2022-10-16T18:42:15;2.53;;;0.80;;
19084;SDS011;9675;51.538;6.728;2022-10-16T18:44:43;2.30;;;1.20;;
19084;SDS011;9675;51.538;6.728;2022-10-16T18:47:10;2.83;;;0.90;;
19084;SDS011;9675;51.538;6.728;2022-10-16T18:49:37;1.93;;;1.10;;
19084;SDS011;9675;51.538;6.728;2022-10-16T18:52:04;2.13;;;1.23;;
19084;SDS011;9675;51.538;6.728;2022-10-16T18:54:33;2.57;;;1.40;;
19084;SDS011;9675;51.538;6.728;2022-10-16T18:57:01;3.93;;;1.20;;
19084;SDS011;9675;51.538;6.728;2022-10-16T18:59:28;1.70;;;1.10;;
19084;SDS011;9675;51.538;6.728;2022-10-16T19:01:55;2.90;;;1.40;;
19084;SDS011;9675;51.538;6.728;2022-10-16T19:04:23;2.30;;;1.40;;
19084;SDS011;9675;51.538;6.728;2022-10-16T19:06:51;3.30;;;1.40;;
19084;SDS011;9675;51.538;6.728;2022-10-16T19:09:19;3.60;;;1.27;;
19084;SDS011;9675;51.538;6.728;2022-10-16T19:11:49;2.90;;;1.43;;
19084;SDS011;9675;51.538;6.728;2022-10-16T19:14:16;2.83;;;1.10;;
19084;SDS011;9675;51.538;6.728;2022-10-16T19:16:45;3.90;;;1.37;;
19084;SDS011;9675;51.538;6.728;2022-10-16T19:19:13;4.47;;;1.53;;
19084;SDS011;9675;51.538;6.728;2022-10-16T19:21:43;1.80;;;1.10;;
19084;SDS011;9675;51.538;6.728;2022-10-16T19:24:12;2.23;;;1.03;;
19084;SDS011;9675;51.538;6.728;2022-10-16T19:26:41;2.70;;;1.43;;
19084;SDS011;9675;51.538;6.728;2022-10-16T19:29:10;4.10;;;2.20;;
19084;SDS011;9675;51.538;6.728;2022-10-16T19:31:37;3.87;;;1.80;;
19084;SDS011;9675;51.538;6.728;2022-10-16T19:34:05;3.50;;;1.30;;
19084;SDS011;9675;51.538;6.728;2022-10-16T19:36:35;2.30;;;1.40;;